sensor_id;sensor_type;location;lat;lon;timestamp;pressure;altitude;pressure_sealevel;temperature;humidity
69411;BME280;56604;48.652;9.194;2022-12-07T00:02:21;96313.28;;;2.92;90.54
69411;BME280;56604;48.652;9.194;2022-12-07T00:04:49;96299.09;;;2.95;90.74
69411;BME280;56604;48.652;9.194;2022-12-07T00:07:14;96316.06;;;2.84;90.76
69411;BME280;56604;48.652;9.194;2022-12-07T00:09:40;96306.09;;;2.95;90.94
69411;BME280;56604;48.652;9.194;2022-12-07T00:12:07;96298.88;;;2.90;91.11
69411;BME280;56604;48.652;9.194;2022-12-07T00:14:33;96299.91;;;2.89;91.50
69411;BME280;56604;48.652;9.194;2022-12-07T00:16:58;96312.47;;;2.92;90.95
69411;BME280;56604;48.652;9.194;2022-12-07T00:19:24;96308.47;;;2.83;90.81
69411;BME280;56604;48.652;9.194;2022-12-07T00:21:49;96308.09;;;2.86;91.37
69411;BME280;56604;48.652;9.194;2022-12-07T00:24:14;96307.91;;;2.94;90.76
69411;BME280;56604;48.652;9.194;2022-12-07T00:26:41;96306.09;;;2.88;90.84
69411;BME280;56604;48.652;9.194;2022-12-07T00:29:13;96309.09;;;2.85;91.36
69411;BME280;56604;48.652;9.194;2022-12-07T00:31:40;96306.28;;;2.86;91.85
69411;BME280;56604;48.652;9.194;2022-12-07T00:34:07;96305.91;;;2.96;90.69
69411;BME280;56604;48.652;9.194;2022-12-07T00:36:32;96301.28;;;2.98;90.49
69411;BME280;56604;48.652;9.194;2022-12-07T00:38:59;96294.91;;;3.01;90.61
69411;BME280;56604;48.652;9.194;2022-12-07T00:41:25;96300.09;;;2.94;90.94
69411;BME280;56604;48.652;9.194;2022-12-07T00:43:52;96299.31;;;3.00;90.77
69411;BME280;56604;48.652;9.194;2022-12-07T00:46:18;96296.72;;;3.00;90.31
69411;BME280;56604;48.652;9.194;2022-12-07T00:48:44;96298.50;;;2.93;91.09
69411;BME280;56604;48.652;9.194;2022-12-07T00:51:11;96294.13;;;3.00;90.64
69411;BME280;56604;48.652;9.194;2022-12-07T00:53:37;96297.31;;;3.02;90.29
69411;BME280;56604;48.652;9.194;2022-12-07T00:56:07;96299.31;;;2.93;90.41
69411;BME280;56604;48.652;9.194;2022-12-07T00:58:33;96288.50;;;2.90;91.45
69411;BME280;56604;48.652;9.194;2022-12-07T01:01:02;96302.28;;;2.84;91.18
69411;BME280;56604;48.652;9.194;2022-12-07T01:03:28;96302.28;;;2.84;91.77
69411;BME280;56604;48.652;9.194;2022-12-07T01:05:55;96299.72;;;2.97;92.01
69411;BME280;56604;48.652;9.194;2022-12-07T01:08:21;96295.72;;;2.95;91.79
69411;BME280;56604;48.652;9.194;2022-12-07T01:10:48;96289.31;;;3.04;91.24
69411;BME280;56604;48.652;9.194;2022-12-07T01:13:14;96294.31;;;2.92;91.46
69411;BME280;56604;48.652;9.194;2022-12-07T01:15:41;96291.09;;;2.90;91.52
69411;BME280;56604;48.652;9.194;2022-12-07T01:18:06;96294.72;;;3.02;91.38
69411;BME280;56604;48.652;9.194;2022-12-07T01:20:31;96296.09;;;2.98;91.19
69411;BME280;56604;48.652;9.194;2022-12-07T01:22:57;96294.50;;;2.97;91.69
69411;BME280;56604;48.652;9.194;2022-12-07T01:25:22;96299.72;;;2.90;91.45
69411;BME280;56604;48.652;9.194;2022-12-07T01:27:47;96302.50;;;2.96;91.58
69411;BME280;56604;48.652;9.194;2022-12-07T01:30:13;96299.72;;;2.90;91.02
69411;BME280;56604;48.652;9.194;2022-12-07T01:32:38;96304.47;;;2.87;91.15
69411;BME280;56604;48.652;9.194;2022-12-07T01:35:04;96300.91;;;2.88;91.23
69411;BME280;56604;48.652;9.194;2022-12-07T01:37:36;96314.88;;;2.87;91.43
69411;BME280;56604;48.652;9.194;2022-12-07T01:40:04;96315.88;;;2.86;91.25
69411;BME280;56604;48.652;9.194;2022-12-07T01:42:29;96311.28;;;2.81;91.03
69411;BME280;56604;48.652;9.194;2022-12-07T01:47:58;96315.44;;;2.76;91.01
69411;BME280;56604;48.652;9.194;2022-12-07T01:50:26;96314.03;;;2.66;90.70
69411;BME280;56604;48.652;9.194;2022-12-07T01:52:53;96318.03;;;2.62;90.86
69411;BME280;56604;48.652;9.194;2022-12-07T01:55:21;96315.84;;;2.59;90.38
69411;BME280;56604;48.652;9.194;2022-12-07T01:57:52;96317.22;;;2.55;90.12
69411;BME280;56604;48.652;9.194;2022-12-07T02:00:18;96317.63;;;2.59;90.00
69411;BME280;56604;48.652;9.194;2022-12-07T02:02:57;96313.81;;;2.61;89.40
69411;BME280;56604;48.652;9.194;2022-12-07T02:05:25;96322.22;;;2.57;89.42
69411;BME280;56604;48.652;9.194;2022-12-07T02:07:54;96317.22;;;2.55;89.21
69411;BME280;56604;48.652;9.194;2022-12-07T02:10:25;96313.59;;;2.50;88.68
69411;BME280;56604;48.652;9.194;2022-12-07T02:13:01;96320.81;;;2.54;88.98
69411;BME280;56604;48.652;9.194;2022-12-07T02:24:17;96317.94;;;2.29;89.43
69411;BME280;56604;48.652;9.194;2022-12-07T02:29:38;96320.59;;;2.49;89.78
69411;BME280;56604;48.652;9.194;2022-12-07T02:32:16;96304.41;;;2.40;89.10
69411;BME280;56604;48.652;9.194;2022-12-07T02:38:03;96305.59;;;2.38;89.48
69411;BME280;56604;48.652;9.194;2022-12-07T02:40:33;96310.41;;;2.41;90.05
69411;BME280;56604;48.652;9.194;2022-12-07T02:43:16;96306.44;;;2.45;89.81
69411;BME280;56604;48.652;9.194;2022-12-07T02:45:44;96306.63;;;2.50;89.13
69411;BME280;56604;48.652;9.194;2022-12-07T02:48:13;96309.22;;;2.50;89.07
69411;BME280;56604;48.652;9.194;2022-12-07T02:50:53;96304.84;;;2.51;89.23
69411;BME280;56604;48.652;9.194;2022-12-07T02:53:39;96312.03;;;2.55;89.01
69411;BME280;56604;48.652;9.194;2022-12-07T02:56:27;96304.03;;;2.50;88.77
69411;BME280;56604;48.652;9.194;2022-12-07T03:07:53;96294.03;;;2.47;88.60
69411;BME280;56604;48.652;9.194;2022-12-07T03:10:25;96288.84;;;2.47;88.72
69411;BME280;56604;48.652;9.194;2022-12-07T03:18:16;96281.06;;;2.40;89.28
69411;BME280;56604;48.652;9.194;2022-12-07T03:20:44;96278.47;;;2.40;89.52
69411;BME280;56604;48.652;9.194;2022-12-07T03:23:12;96280.06;;;2.35;89.88
69411;BME280;56604;48.652;9.194;2022-12-07T03:25:43;96283.69;;;2.54;90.67
69411;BME280;56604;48.652;9.194;2022-12-07T03:28:12;96282.09;;;2.59;89.28
69411;BME280;56604;48.652;9.194;2022-12-07T03:30:57;96277.09;;;2.64;89.03
69411;BME280;56604;48.652;9.194;2022-12-07T03:33:40;96283.69;;;2.60;88.95
69411;BME280;56604;48.652;9.194;2022-12-07T03:36:19;96279.91;;;2.56;88.34
69411;BME280;56604;48.652;9.194;2022-12-07T03:38:57;96277.47;;;2.41;88.64
69411;BME280;56604;48.652;9.194;2022-12-07T03:41:29;96267.88;;;2.42;88.47
69411;BME280;56604;48.652;9.194;2022-12-07T03:43:55;96270.69;;;2.40;88.78
69411;BME280;56604;48.652;9.194;2022-12-07T03:49:00;96275.09;;;2.40;89.15
69411;BME280;56604;48.652;9.194;2022-12-07T03:51:45;96273.28;;;2.34;89.44
69411;BME280;56604;48.652;9.194;2022-12-07T03:56:54;96285.03;;;2.30;90.10
69411;BME280;56604;48.652;9.194;2022-12-07T03:59:21;96281.06;;;2.34;89.54
69411;BME280;56604;48.652;9.194;2022-12-07T04:01:56;96282.44;;;2.30;90.16
69411;BME280;56604;48.652;9.194;2022-12-07T04:04:23;96276.44;;;2.29;89.50
69411;BME280;56604;48.652;9.194;2022-12-07T04:06:49;96280.84;;;2.29;89.87
69411;BME280;56604;48.652;9.194;2022-12-07T04:09:15;96280.03;;;2.28;90.00
69411;BME280;56604;48.652;9.194;2022-12-07T04:11:40;96264.03;;;2.18;89.91
69411;BME280;56604;48.652;9.194;2022-12-07T04:14:05;96266.06;;;2.22;90.15
69411;BME280;56604;48.652;9.194;2022-12-07T04:16:44;96267.66;;;2.23;90.21
69411;BME280;56604;48.652;9.194;2022-12-07T04:19:10;96265.84;;;2.24;90.18
69411;BME280;56604;48.652;9.194;2022-12-07T04:21:35;96259.25;;;2.21;90.07
69411;BME280;56604;48.652;9.194;2022-12-07T04:24:00;96259.06;;;2.16;90.09
69411;BME280;56604;48.652;9.194;2022-12-07T04:26:26;96255.28;;;2.25;90.62
69411;BME280;56604;48.652;9.194;2022-12-07T04:28:51;96250.91;;;2.19;90.32
69411;BME280;56604;48.652;9.194;2022-12-07T04:31:16;96254.84;;;2.15;90.61
69411;BME280;56604;48.652;9.194;2022-12-07T04:33:42;96257.09;;;2.25;90.73
69411;BME280;56604;48.652;9.194;2022-12-07T04:36:07;96260.88;;;2.22;90.39
69411;BME280;56604;48.652;9.194;2022-12-07T04:38:32;96268.03;;;2.20;91.06
69411;BME280;56604;48.652;9.194;2022-12-07T04:40:58;96264.44;;;2.21;90.35
69411;BME280;56604;48.652;9.194;2022-12-07T04:43:23;96255.69;;;2.22;90.73
69411;BME280;56604;48.652;9.194;2022-12-07T04:45:49;96261.06;;;2.14;90.83
69411;BME280;56604;48.652;9.194;2022-12-07T04:48:15;96258.63;;;2.13;90.94
69411;BME280;56604;48.652;9.194;2022-12-07T04:50:41;96254.47;;;2.12;91.35
69411;BME280;56604;48.652;9.194;2022-12-07T04:53:06;96249.28;;;2.12;91.57
69411;BME280;56604;48.652;9.194;2022-12-07T04:55:31;96253.44;;;2.06;91.20
69411;BME280;56604;48.652;9.194;2022-12-07T04:57:56;96260.00;;;2.02;91.46
69411;BME280;56604;48.652;9.194;2022-12-07T05:00:22;96254.44;;;2.05;92.18
69411;BME280;56604;48.652;9.194;2022-12-07T05:02:47;96260.38;;;1.99;91.71
69411;BME280;56604;48.652;9.194;2022-12-07T05:05:12;96249.63;;;1.95;91.89
69411;BME280;56604;48.652;9.194;2022-12-07T05:07:38;96251.63;;;2.00;91.98
69411;BME280;56604;48.652;9.194;2022-12-07T05:10:04;96247.97;;;1.88;92.10
69411;BME280;56604;48.652;9.194;2022-12-07T05:12:29;96247.56;;;1.84;92.06
69411;BME280;56604;48.652;9.194;2022-12-07T05:14:55;96250.72;;;1.73;92.42
69411;BME280;56604;48.652;9.194;2022-12-07T05:17:20;96243.94;;;1.72;92.66
69411;BME280;56604;48.652;9.194;2022-12-07T05:19:45;96239.31;;;1.67;92.99
69411;BME280;56604;48.652;9.194;2022-12-07T05:22:10;96225.56;;;1.67;93.37
69411;BME280;56604;48.652;9.194;2022-12-07T05:24:36;96220.63;;;1.72;93.50
69411;BME280;56604;48.652;9.194;2022-12-07T05:27:01;96225.97;;;1.64;93.46
69411;BME280;56604;48.652;9.194;2022-12-07T05:29:26;96220.59;;;1.65;93.22
69411;BME280;56604;48.652;9.194;2022-12-07T05:31:52;96226.59;;;1.66;92.61
69411;BME280;56604;48.652;9.194;2022-12-07T05:34:17;96221.56;;;1.64;93.54
69411;BME280;56604;48.652;9.194;2022-12-07T05:36:42;96227.16;;;1.61;93.60
69411;BME280;56604;48.652;9.194;2022-12-07T05:39:09;96222.41;;;1.71;93.40
69411;BME280;56604;48.652;9.194;2022-12-07T05:41:35;96216.22;;;1.66;92.84
69411;BME280;56604;48.652;9.194;2022-12-07T05:44:19;96222.00;;;1.68;92.22
69411;BME280;56604;48.652;9.194;2022-12-07T05:46:44;96219.38;;;1.61;91.94
69411;BME280;56604;48.652;9.194;2022-12-07T05:49:10;96224.94;;;1.58;92.01
69411;BME280;56604;48.652;9.194;2022-12-07T05:51:35;96229.31;;;1.51;91.91
69411;BME280;56604;48.652;9.194;2022-12-07T05:54:00;96223.81;;;1.32;92.90
69411;BME280;56604;48.652;9.194;2022-12-07T05:56:26;96223.44;;;1.35;91.57
69411;BME280;56604;48.652;9.194;2022-12-07T05:58:52;96241.72;;;1.27;90.89
69411;BME280;56604;48.652;9.194;2022-12-07T06:01:36;96240.50;;;1.23;90.29
69411;BME280;56604;48.652;9.194;2022-12-07T06:04:01;96237.69;;;1.18;89.42
69411;BME280;56604;48.652;9.194;2022-12-07T06:06:26;96240.88;;;1.20;88.52
69411;BME280;56604;48.652;9.194;2022-12-07T06:08:52;96243.25;;;1.15;88.16
69411;BME280;56604;48.652;9.194;2022-12-07T06:11:17;96248.78;;;1.12;87.96
69411;BME280;56604;48.652;9.194;2022-12-07T06:14:01;96252.94;;;1.34;89.78
69411;BME280;56604;48.652;9.194;2022-12-07T06:16:26;96254.53;;;1.77;91.34
69411;BME280;56604;48.652;9.194;2022-12-07T06:18:52;96271.09;;;1.48;89.23
69411;BME280;56604;48.652;9.194;2022-12-07T06:21:17;96277.00;;;1.28;88.92
69411;BME280;56604;48.652;9.194;2022-12-07T06:23:42;96268.78;;;1.25;89.00
69411;BME280;56604;48.652;9.194;2022-12-07T06:26:08;96275.31;;;1.14;89.93
69411;BME280;56604;48.652;9.194;2022-12-07T06:28:33;96275.44;;;1.06;89.95
69411;BME280;56604;48.652;9.194;2022-12-07T06:31:02;96271.84;;;1.07;90.11
69411;BME280;56604;48.652;9.194;2022-12-07T06:33:28;96274.19;;;1.02;90.48
69411;BME280;56604;48.652;9.194;2022-12-07T06:35:53;96279.88;;;1.12;90.74
69411;BME280;56604;48.652;9.194;2022-12-07T06:38:19;96276.28;;;1.13;90.37
69411;BME280;56604;48.652;9.194;2022-12-07T06:40:44;96276.28;;;1.13;90.54
69411;BME280;56604;48.652;9.194;2022-12-07T06:43:10;96270.78;;;1.23;90.77
69411;BME280;56604;48.652;9.194;2022-12-07T06:45:35;96281.06;;;1.16;90.25
69411;BME280;56604;48.652;9.194;2022-12-07T06:48:00;96281.69;;;1.18;90.75
69411;BME280;56604;48.652;9.194;2022-12-07T06:50:26;96283.28;;;1.19;90.80
69411;BME280;56604;48.652;9.194;2022-12-07T06:52:51;96286.69;;;1.20;91.39
69411;BME280;56604;48.652;9.194;2022-12-07T06:55:17;96295.50;;;1.25;90.86
69411;BME280;56604;48.652;9.194;2022-12-07T06:57:42;96295.50;;;1.25;91.17
69411;BME280;56604;48.652;9.194;2022-12-07T07:00:08;96299.91;;;1.31;91.44
69411;BME280;56604;48.652;9.194;2022-12-07T07:02:33;96292.91;;;1.25;91.28
69411;BME280;56604;48.652;9.194;2022-12-07T07:04:59;96294.88;;;1.23;91.74
69411;BME280;56604;48.652;9.194;2022-12-07T07:07:24;96289.50;;;1.25;92.07
69411;BME280;56604;48.652;9.194;2022-12-07T07:09:49;96285.50;;;1.22;91.62
69411;BME280;56604;48.652;9.194;2022-12-07T07:12:15;96284.75;;;1.28;91.24
69411;BME280;56604;48.652;9.194;2022-12-07T07:14:40;96285.13;;;1.25;91.93
69411;BME280;56604;48.652;9.194;2022-12-07T07:17:05;96277.25;;;1.40;91.34
69411;BME280;56604;48.652;9.194;2022-12-07T07:19:31;96271.63;;;1.37;91.19
69411;BME280;56604;48.652;9.194;2022-12-07T07:21:56;96271.63;;;1.37;91.32
69411;BME280;56604;48.652;9.194;2022-12-07T07:24:22;96272.88;;;1.41;91.25
69411;BME280;56604;48.652;9.194;2022-12-07T07:26:47;96270.53;;;1.46;91.25
69411;BME280;56604;48.652;9.194;2022-12-07T07:29:12;96276.91;;;1.50;90.93
69411;BME280;56604;48.652;9.194;2022-12-07T07:31:38;96286.50;;;1.56;90.65
69411;BME280;56604;48.652;9.194;2022-12-07T07:34:03;96287.88;;;1.52;90.31
69411;BME280;56604;48.652;9.194;2022-12-07T07:36:29;96288.94;;;1.64;90.50
69411;BME280;56604;48.652;9.194;2022-12-07T07:38:54;96288.16;;;1.64;90.44
69411;BME280;56604;48.652;9.194;2022-12-07T07:41:20;96293.75;;;1.67;90.10
69411;BME280;56604;48.652;9.194;2022-12-07T07:43:45;96294.13;;;1.64;90.02
69411;BME280;56604;48.652;9.194;2022-12-07T07:46:10;96298.53;;;1.70;90.26
69411;BME280;56604;48.652;9.194;2022-12-07T07:48:35;96298.16;;;1.73;90.54
69411;BME280;56604;48.652;9.194;2022-12-07T07:51:05;96307.78;;;1.79;90.48
69411;BME280;56604;48.652;9.194;2022-12-07T07:53:30;96300.84;;;1.93;89.67
69411;BME280;56604;48.652;9.194;2022-12-07T07:55:56;96308.22;;;1.90;89.40
69411;BME280;56604;48.652;9.194;2022-12-07T07:58:21;96312.63;;;1.96;89.14
69411;BME280;56604;48.652;9.194;2022-12-07T08:00:47;96317.00;;;1.95;89.18
69411;BME280;56604;48.652;9.194;2022-12-07T08:03:12;96318.25;;;2.06;88.99
69411;BME280;56604;48.652;9.194;2022-12-07T08:05:38;96314.88;;;2.06;89.32
69411;BME280;56604;48.652;9.194;2022-12-07T08:08:04;96311.03;;;1.95;88.81
69411;BME280;56604;48.652;9.194;2022-12-07T08:10:29;96313.84;;;2.00;88.88
69411;BME280;56604;48.652;9.194;2022-12-07T08:12:57;96309.84;;;1.97;89.04
69411;BME280;56604;48.652;9.194;2022-12-07T08:15:43;96307.66;;;1.94;89.04
69411;BME280;56604;48.652;9.194;2022-12-07T08:18:08;96304.53;;;2.19;88.38
69411;BME280;56604;48.652;9.194;2022-12-07T08:20:36;96306.38;;;2.25;87.66
69411;BME280;56604;48.652;9.194;2022-12-07T08:23:02;96305.19;;;2.34;87.65
69411;BME280;56604;48.652;9.194;2022-12-07T08:25:28;96308.19;;;2.31;87.26
69411;BME280;56604;48.652;9.194;2022-12-07T08:27:53;96313.72;;;2.21;87.96
69411;BME280;56604;48.652;9.194;2022-12-07T08:30:19;96320.72;;;2.28;87.60
69411;BME280;56604;48.652;9.194;2022-12-07T08:32:45;96316.97;;;2.37;87.04
69411;BME280;56604;48.652;9.194;2022-12-07T08:35:11;96319.41;;;2.45;87.32
69411;BME280;56604;48.652;9.194;2022-12-07T08:37:36;96323.59;;;1.98;87.80
69411;BME280;56604;48.652;9.194;2022-12-07T08:40:03;96326.91;;;2.20;88.71
69411;BME280;56604;48.652;9.194;2022-12-07T08:42:29;96325.91;;;2.28;88.50
69411;BME280;56604;48.652;9.194;2022-12-07T08:45:04;96329.41;;;2.07;88.44
69411;BME280;56604;48.652;9.194;2022-12-07T08:47:30;96324.06;;;2.08;88.75
69411;BME280;56604;48.652;9.194;2022-12-07T08:49:56;96320.63;;;2.08;88.90
69411;BME280;56604;48.652;9.194;2022-12-07T08:52:22;96320.16;;;2.39;88.28
69411;BME280;56604;48.652;9.194;2022-12-07T08:54:47;96316.84;;;2.65;87.17
69411;BME280;56604;48.652;9.194;2022-12-07T08:57:13;96316.28;;;2.83;85.61
69411;BME280;56604;48.652;9.194;2022-12-07T08:59:38;96314.41;;;2.50;86.70
69411;BME280;56604;48.652;9.194;2022-12-07T09:02:05;96317.25;;;2.68;86.05
69411;BME280;56604;48.652;9.194;2022-12-07T09:04:31;96317.28;;;2.82;84.91
69411;BME280;56604;48.652;9.194;2022-12-07T09:06:56;96315.25;;;2.84;83.82
69411;BME280;56604;48.652;9.194;2022-12-07T09:09:22;96315.09;;;3.05;82.75
69411;BME280;56604;48.652;9.194;2022-12-07T09:11:47;96318.88;;;2.89;83.87
69411;BME280;56604;48.652;9.194;2022-12-07T09:14:13;96309.09;;;3.05;82.77
69411;BME280;56604;48.652;9.194;2022-12-07T09:16:39;96312.47;;;2.92;82.55
69411;BME280;56604;48.652;9.194;2022-12-07T09:19:04;96315.09;;;3.12;82.26
69411;BME280;56604;48.652;9.194;2022-12-07T09:21:29;96312.47;;;3.32;81.36
69411;BME280;56604;48.652;9.194;2022-12-07T09:23:55;96316.84;;;3.58;80.51
69411;BME280;56604;48.652;9.194;2022-12-07T09:26:20;96321.41;;;3.82;77.75
69411;BME280;56604;48.652;9.194;2022-12-07T09:28:45;96312.81;;;3.75;77.78
69411;BME280;56604;48.652;9.194;2022-12-07T09:31:11;96319.22;;;3.73;78.34
69411;BME280;56604;48.652;9.194;2022-12-07T09:33:36;96317.78;;;3.90;78.06
69411;BME280;56604;48.652;9.194;2022-12-07T09:36:03;96313.97;;;3.99;78.10
69411;BME280;56604;48.652;9.194;2022-12-07T09:38:28;96313.97;;;3.99;77.21
69411;BME280;56604;48.652;9.194;2022-12-07T09:40:55;96311.88;;;4.21;77.51
69411;BME280;56604;48.652;9.194;2022-12-07T09:43:23;96307.91;;;4.12;76.80
69411;BME280;56604;48.652;9.194;2022-12-07T09:45:54;96298.44;;;4.63;76.25
69411;BME280;56604;48.652;9.194;2022-12-07T09:48:29;96302.19;;;4.42;75.55
69411;BME280;56604;48.652;9.194;2022-12-07T09:50:57;96301.34;;;4.48;74.33
69411;BME280;56604;48.652;9.194;2022-12-07T09:53:37;96291.66;;;4.62;74.04
69411;BME280;56604;48.652;9.194;2022-12-07T09:56:03;96285.25;;;4.58;73.90
69411;BME280;56604;48.652;9.194;2022-12-07T09:58:31;96284.53;;;4.44;72.00
69411;BME280;56604;48.652;9.194;2022-12-07T10:03:38;96281.81;;;4.64;72.63
69411;BME280;56604;48.652;9.194;2022-12-07T10:06:05;96284.09;;;4.54;73.17
69411;BME280;56604;48.652;9.194;2022-12-07T10:08:31;96290.13;;;4.47;72.56
69411;BME280;56604;48.652;9.194;2022-12-07T10:10:57;96285.00;;;4.66;72.67
69411;BME280;56604;48.652;9.194;2022-12-07T10:13:34;96273.19;;;4.95;71.01
69411;BME280;56604;48.652;9.194;2022-12-07T10:16:00;96275.63;;;4.65;72.14
69411;BME280;56604;48.652;9.194;2022-12-07T10:18:33;96281.97;;;4.69;72.54
69411;BME280;56604;48.652;9.194;2022-12-07T10:23:35;96278.00;;;4.66;71.53
69411;BME280;56604;48.652;9.194;2022-12-07T10:26:20;96271.78;;;4.67;72.17
69411;BME280;56604;48.652;9.194;2022-12-07T10:28:46;96266.03;;;4.59;73.12
69411;BME280;56604;48.652;9.194;2022-12-07T10:31:18;96264.84;;;4.55;72.29
69411;BME280;56604;48.652;9.194;2022-12-07T10:33:58;96252.09;;;4.78;72.72
69411;BME280;56604;48.652;9.194;2022-12-07T10:36:27;96259.06;;;4.84;71.82
69411;BME280;56604;48.652;9.194;2022-12-07T10:41:25;96258.44;;;4.57;71.88
69411;BME280;56604;48.652;9.194;2022-12-07T10:43:53;96261.38;;;4.29;72.72
69411;BME280;56604;48.652;9.194;2022-12-07T10:46:32;96262.75;;;4.70;72.19
69411;BME280;56604;48.652;9.194;2022-12-07T10:49:24;96259.56;;;4.68;71.45
69411;BME280;56604;48.652;9.194;2022-12-07T10:52:01;96252.41;;;4.88;70.92
69411;BME280;56604;48.652;9.194;2022-12-07T10:54:45;96249.28;;;5.05;71.41
69411;BME280;56604;48.652;9.194;2022-12-07T10:57:27;96239.28;;;5.02;70.98
69411;BME280;56604;48.652;9.194;2022-12-07T11:05:54;96234.69;;;5.22;69.83
69411;BME280;56604;48.652;9.194;2022-12-07T11:11:04;96229.50;;;4.97;69.84
69411;BME280;56604;48.652;9.194;2022-12-07T11:13:48;96232.84;;;5.04;70.18
69411;BME280;56604;48.652;9.194;2022-12-07T11:16:27;96236.31;;;4.41;71.31
69411;BME280;56604;48.652;9.194;2022-12-07T11:19:28;96224.28;;;4.72;71.68
69411;BME280;56604;48.652;9.194;2022-12-07T11:22:02;96228.69;;;4.96;71.02
69411;BME280;56604;48.652;9.194;2022-12-07T11:27:22;96221.94;;;4.89;70.64
69411;BME280;56604;48.652;9.194;2022-12-07T11:30:11;96228.59;;;4.28;71.60
69411;BME280;56604;48.652;9.194;2022-12-07T11:38:18;96204.09;;;4.92;70.43
69411;BME280;56604;48.652;9.194;2022-12-07T11:40:48;96198.63;;;5.19;70.13
69411;BME280;56604;48.652;9.194;2022-12-07T11:43:24;96195.00;;;5.20;70.25
69411;BME280;56604;48.652;9.194;2022-12-07T11:46:12;96196.16;;;5.06;70.49
69411;BME280;56604;48.652;9.194;2022-12-07T11:49:02;96201.00;;;4.77;71.42
69411;BME280;56604;48.652;9.194;2022-12-07T11:51:29;96191.19;;;4.97;69.85
69411;BME280;56604;48.652;9.194;2022-12-07T11:54:03;96189.13;;;5.06;71.85
69411;BME280;56604;48.652;9.194;2022-12-07T11:56:30;96190.38;;;5.22;70.51
69411;BME280;56604;48.652;9.194;2022-12-07T11:59:19;96178.94;;;5.23;70.08
69411;BME280;56604;48.652;9.194;2022-12-07T12:02:09;96180.16;;;5.57;69.84
69411;BME280;56604;48.652;9.194;2022-12-07T12:04:54;96182.06;;;5.32;70.04
69411;BME280;56604;48.652;9.194;2022-12-07T12:07:23;96179.69;;;5.30;69.50
69411;BME280;56604;48.652;9.194;2022-12-07T12:10:02;96178.06;;;5.29;69.79
69411;BME280;56604;48.652;9.194;2022-12-07T12:21:13;96176.06;;;5.13;71.12
69411;BME280;56604;48.652;9.194;2022-12-07T12:23:46;96170.56;;;5.21;70.34
69411;BME280;56604;48.652;9.194;2022-12-07T12:26:18;96170.41;;;5.16;70.09
69411;BME280;56604;48.652;9.194;2022-12-07T12:31:37;96165.81;;;5.11;70.90
69411;BME280;56604;48.652;9.194;2022-12-07T12:34:04;96163.28;;;5.23;70.63
69411;BME280;56604;48.652;9.194;2022-12-07T12:36:48;96170.41;;;5.16;71.26
69411;BME280;56604;48.652;9.194;2022-12-07T12:39:16;96170.13;;;5.24;69.64
69411;BME280;56604;48.652;9.194;2022-12-07T12:46:59;96160.56;;;5.18;70.99
69411;BME280;56604;48.652;9.194;2022-12-07T12:51:55;96153.88;;;5.04;71.65
69411;BME280;56604;48.652;9.194;2022-12-07T12:54:31;96160.94;;;5.22;70.94
69411;BME280;56604;48.652;9.194;2022-12-07T13:02:26;96151.84;;;5.06;72.19
69411;BME280;56604;48.652;9.194;2022-12-07T13:04:53;96148.53;;;4.99;71.96
69411;BME280;56604;48.652;9.194;2022-12-07T13:10:04;96133.19;;;4.90;73.16
69411;BME280;56604;48.652;9.194;2022-12-07T13:12:30;96139.78;;;4.93;72.12
69411;BME280;56604;48.652;9.194;2022-12-07T13:14:58;96137.09;;;4.81;72.44
69411;BME280;56604;48.652;9.194;2022-12-07T13:20:00;96140.41;;;4.88;71.68
69411;BME280;56604;48.652;9.194;2022-12-07T13:25:29;96128.75;;;4.72;73.27
69411;BME280;56604;48.652;9.194;2022-12-07T13:28:12;96123.38;;;4.67;73.44
69411;BME280;56604;48.652;9.194;2022-12-07T13:31:25;96117.56;;;4.47;73.25
69411;BME280;56604;48.652;9.194;2022-12-07T13:33:55;96128.94;;;4.71;73.44
69411;BME280;56604;48.652;9.194;2022-12-07T13:36:30;96132.00;;;4.68;74.61
69411;BME280;56604;48.652;9.194;2022-12-07T13:39:11;96133.66;;;4.81;73.43
69411;BME280;56604;48.652;9.194;2022-12-07T13:41:42;96123.31;;;4.74;74.18
69411;BME280;56604;48.652;9.194;2022-12-07T13:44:12;96124.06;;;4.81;73.62
69411;BME280;56604;48.652;9.194;2022-12-07T13:49:30;96122.63;;;4.60;73.41
69411;BME280;56604;48.652;9.194;2022-12-07T13:54:44;96114.91;;;4.72;74.79
69411;BME280;56604;48.652;9.194;2022-12-07T13:57:10;96116.94;;;4.70;73.91
69411;BME280;56604;48.652;9.194;2022-12-07T13:59:35;96118.03;;;4.62;74.57
69411;BME280;56604;48.652;9.194;2022-12-07T14:02:16;96124.72;;;4.51;74.79
69411;BME280;56604;48.652;9.194;2022-12-07T14:04:42;96119.94;;;4.48;75.27
69411;BME280;56604;48.652;9.194;2022-12-07T14:07:25;96116.88;;;4.58;75.33
69411;BME280;56604;48.652;9.194;2022-12-07T14:09:55;96122.69;;;4.54;76.85
69411;BME280;56604;48.652;9.194;2022-12-07T14:12:21;96121.56;;;4.68;75.82
69411;BME280;56604;48.652;9.194;2022-12-07T14:14:47;96123.50;;;4.54;76.16
69411;BME280;56604;48.652;9.194;2022-12-07T14:17:18;96124.34;;;4.48;77.28
69411;BME280;56604;48.652;9.194;2022-12-07T14:19:52;96121.06;;;4.34;77.10
69411;BME280;56604;48.652;9.194;2022-12-07T14:22:23;96116.69;;;4.53;76.65
69411;BME280;56604;48.652;9.194;2022-12-07T14:24:49;96105.25;;;4.36;76.71
69411;BME280;56604;48.652;9.194;2022-12-07T14:27:21;96113.16;;;4.47;76.28
69411;BME280;56604;48.652;9.194;2022-12-07T14:29:47;96109.09;;;4.51;75.37
69411;BME280;56604;48.652;9.194;2022-12-07T14:32:23;96111.97;;;4.43;75.02
69411;BME280;56604;48.652;9.194;2022-12-07T14:35:13;96110.03;;;4.32;76.35
69411;BME280;56604;48.652;9.194;2022-12-07T14:37:40;96110.91;;;4.26;76.22
69411;BME280;56604;48.652;9.194;2022-12-07T14:40:07;96117.56;;;4.15;76.24
69411;BME280;56604;48.652;9.194;2022-12-07T14:42:33;96123.44;;;4.11;76.57
69411;BME280;56604;48.652;9.194;2022-12-07T14:44:59;96122.22;;;4.13;76.42
69411;BME280;56604;48.652;9.194;2022-12-07T14:47:25;96121.88;;;4.03;76.86
69411;BME280;56604;48.652;9.194;2022-12-07T14:49:51;96127.28;;;4.01;76.33
69411;BME280;56604;48.652;9.194;2022-12-07T14:52:23;96124.47;;;4.03;77.39
69411;BME280;56604;48.652;9.194;2022-12-07T14:54:49;96127.88;;;4.03;75.90
69411;BME280;56604;48.652;9.194;2022-12-07T14:57:15;96125.13;;;3.92;76.59
69411;BME280;56604;48.652;9.194;2022-12-07T14:59:40;96120.72;;;3.92;77.41
69411;BME280;56604;48.652;9.194;2022-12-07T15:02:06;96127.19;;;3.83;75.95